sensor_id;sensor_type;location;lat;lon;timestamp;temperature;humidity
36818;DHT22;22761;51.542;16.450;2022-11-20T00:01:17;4.54;50.41
36818;DHT22;22761;51.542;16.450;2022-11-20T00:03:45;4.65;50.50
36818;DHT22;22761;51.542;16.450;2022-11-20T00:06:17;4.65;50.56
36818;DHT22;22761;51.542;16.450;2022-11-20T00:08:46;4.66;50.73
36818;DHT22;22761;51.542;16.450;2022-11-20T00:11:17;4.71;50.91
36818;DHT22;22761;51.542;16.450;2022-11-20T00:13:47;4.75;50.82
36818;DHT22;22761;51.542;16.450;2022-11-20T00:16:17;4.71;51.09
36818;DHT22;22761;51.542;16.450;2022-11-20T00:18:45;4.72;50.80
36818;DHT22;22761;51.542;16.450;2022-11-20T00:21:17;4.66;50.92
36818;DHT22;22761;51.542;16.450;2022-11-20T00:23:46;4.62;51.55
36818;DHT22;22761;51.542;16.450;2022-11-20T00:26:16;4.59;51.76
36818;DHT22;22761;51.542;16.450;2022-11-20T00:28:48;4.61;52.06
36818;DHT22;22761;51.542;16.450;2022-11-20T00:31:16;4.62;51.65
36818;DHT22;22761;51.542;16.450;2022-11-20T00:33:44;4.66;51.49
36818;DHT22;22761;51.542;16.450;2022-11-20T00:36:14;4.65;51.39
36818;DHT22;22761;51.542;16.450;2022-11-20T00:38:42;4.66;51.50
36818;DHT22;22761;51.542;16.450;2022-11-20T00:41:13;4.64;51.07
36818;DHT22;22761;51.542;16.450;2022-11-20T00:43:42;4.55;51.98
36818;DHT22;22761;51.542;16.450;2022-11-20T00:46:17;4.58;51.29
36818;DHT22;22761;51.542;16.450;2022-11-20T00:48:41;4.52;51.13
36818;DHT22;22761;51.542;16.450;2022-11-20T00:51:09;4.45;51.33
36818;DHT22;22761;51.542;16.450;2022-11-20T00:53:38;4.42;51.31
36818;DHT22;22761;51.542;16.450;2022-11-20T00:56:09;4.38;51.39
36818;DHT22;22761;51.542;16.450;2022-11-20T00:58:41;4.42;51.90
36818;DHT22;22761;51.542;16.450;2022-11-20T01:01:21;4.44;52.04
36818;DHT22;22761;51.542;16.450;2022-11-20T01:03:52;4.49;51.45
36818;DHT22;22761;51.542;16.450;2022-11-20T01:06:24;4.48;51.07
36818;DHT22;22761;51.542;16.450;2022-11-20T01:08:53;4.45;50.81
36818;DHT22;22761;51.542;16.450;2022-11-20T01:11:24;4.30;50.90
36818;DHT22;22761;51.542;16.450;2022-11-20T01:13:53;4.13;51.30
36818;DHT22;22761;51.542;16.450;2022-11-20T01:16:28;3.96;51.70
36818;DHT22;22761;51.542;16.450;2022-11-20T01:18:55;3.83;51.99
36818;DHT22;22761;51.542;16.450;2022-11-20T01:21:32;3.81;52.75
36818;DHT22;22761;51.542;16.450;2022-11-20T01:23:55;3.79;53.55
36818;DHT22;22761;51.542;16.450;2022-11-20T01:26:26;3.85;54.25
36818;DHT22;22761;51.542;16.450;2022-11-20T01:28:54;3.92;53.41
36818;DHT22;22761;51.542;16.450;2022-11-20T01:31:27;3.92;53.75
36818;DHT22;22761;51.542;16.450;2022-11-20T01:33:58;3.97;53.92
36818;DHT22;22761;51.542;16.450;2022-11-20T01:36:28;4.04;54.01
36818;DHT22;22761;51.542;16.450;2022-11-20T01:38:59;4.06;53.87
36818;DHT22;22761;51.542;16.450;2022-11-20T01:41:29;4.03;53.76
36818;DHT22;22761;51.542;16.450;2022-11-20T01:44:17;4.02;53.68
36818;DHT22;22761;51.542;16.450;2022-11-20T01:47:05;3.99;53.50
36818;DHT22;22761;51.542;16.450;2022-11-20T01:49:50;3.94;53.08
36818;DHT22;22761;51.542;16.450;2022-11-20T01:52:48;3.92;53.09
36818;DHT22;22761;51.542;16.450;2022-11-20T01:55:19;3.85;53.99
36818;DHT22;22761;51.542;16.450;2022-11-20T01:57:48;3.83;54.36
36818;DHT22;22761;51.542;16.450;2022-11-20T02:00:18;3.83;54.42
36818;DHT22;22761;51.542;16.450;2022-11-20T02:02:54;3.82;54.22
36818;DHT22;22761;51.542;16.450;2022-11-20T02:08:24;3.78;54.01
36818;DHT22;22761;51.542;16.450;2022-11-20T02:10:51;3.75;53.65
36818;DHT22;22761;51.542;16.450;2022-11-20T02:13:18;3.72;54.13
36818;DHT22;22761;51.542;16.450;2022-11-20T02:16:04;3.68;54.29
36818;DHT22;22761;51.542;16.450;2022-11-20T02:18:32;3.66;54.07
36818;DHT22;22761;51.542;16.450;2022-11-20T02:21:21;3.61;53.86
36818;DHT22;22761;51.542;16.450;2022-11-20T02:24:01;3.50;54.09
36818;DHT22;22761;51.542;16.450;2022-11-20T02:26:32;3.43;54.63
36818;DHT22;22761;51.542;16.450;2022-11-20T02:29:01;3.36;54.32
36818;DHT22;22761;51.542;16.450;2022-11-20T02:31:28;3.26;54.78
36818;DHT22;22761;51.542;16.450;2022-11-20T02:33:58;3.23;54.86
36818;DHT22;22761;51.542;16.450;2022-11-20T02:36:27;3.19;54.66
36818;DHT22;22761;51.542;16.450;2022-11-20T02:38:54;3.13;54.70
36818;DHT22;22761;51.542;16.450;2022-11-20T02:41:22;3.07;54.88
36818;DHT22;22761;51.542;16.450;2022-11-20T02:43:51;3.00;55.41
36818;DHT22;22761;51.542;16.450;2022-11-20T02:46:17;3.00;54.59
36818;DHT22;22761;51.542;16.450;2022-11-20T02:48:45;2.93;55.19
36818;DHT22;22761;51.542;16.450;2022-11-20T02:51:12;2.92;55.69
36818;DHT22;22761;51.542;16.450;2022-11-20T02:53:39;2.91;55.29
36818;DHT22;22761;51.542;16.450;2022-11-20T02:56:07;2.92;54.84
36818;DHT22;22761;51.542;16.450;2022-11-20T02:58:34;2.88;55.66
36818;DHT22;22761;51.542;16.450;2022-11-20T03:01:01;2.83;55.46
36818;DHT22;22761;51.542;16.450;2022-11-20T03:03:28;2.85;55.58
36818;DHT22;22761;51.542;16.450;2022-11-20T03:05:55;2.86;55.53
36818;DHT22;22761;51.542;16.450;2022-11-20T03:08:22;2.82;55.16
36818;DHT22;22761;51.542;16.450;2022-11-20T03:10:49;2.81;55.66
36818;DHT22;22761;51.542;16.450;2022-11-20T03:13:16;2.76;54.90
36818;DHT22;22761;51.542;16.450;2022-11-20T03:15:43;2.72;55.27
36818;DHT22;22761;51.542;16.450;2022-11-20T03:18:10;2.69;55.21
36818;DHT22;22761;51.542;16.450;2022-11-20T03:20:37;2.68;55.48
36818;DHT22;22761;51.542;16.450;2022-11-20T03:23:04;2.67;55.28
36818;DHT22;22761;51.542;16.450;2022-11-20T03:25:31;2.64;55.92
36818;DHT22;22761;51.542;16.450;2022-11-20T03:27:58;2.65;55.51
36818;DHT22;22761;51.542;16.450;2022-11-20T03:30:25;2.65;55.80
36818;DHT22;22761;51.542;16.450;2022-11-20T03:32:53;2.67;55.92
36818;DHT22;22761;51.542;16.450;2022-11-20T03:35:21;2.65;55.57
36818;DHT22;22761;51.542;16.450;2022-11-20T03:37:48;2.65;55.87
36818;DHT22;22761;51.542;16.450;2022-11-20T03:40:15;2.65;55.99
36818;DHT22;22761;51.542;16.450;2022-11-20T03:42:42;2.67;56.10
36818;DHT22;22761;51.542;16.450;2022-11-20T03:45:19;2.67;55.54
36818;DHT22;22761;51.542;16.450;2022-11-20T03:47:44;2.69;54.92
36818;DHT22;22761;51.542;16.450;2022-11-20T03:50:13;2.61;55.52
36818;DHT22;22761;51.542;16.450;2022-11-20T03:52:40;2.61;55.25
36818;DHT22;22761;51.542;16.450;2022-11-20T03:55:08;2.55;55.64
36818;DHT22;22761;51.542;16.450;2022-11-20T03:57:35;2.53;55.59
36818;DHT22;22761;51.542;16.450;2022-11-20T04:00:04;2.54;55.29
36818;DHT22;22761;51.542;16.450;2022-11-20T04:02:31;2.53;55.57
36818;DHT22;22761;51.542;16.450;2022-11-20T04:04:58;2.58;55.49
36818;DHT22;22761;51.542;16.450;2022-11-20T04:07:25;2.64;55.16
36818;DHT22;22761;51.542;16.450;2022-11-20T04:09:52;2.67;54.89
36818;DHT22;22761;51.542;16.450;2022-11-20T04:12:19;2.65;54.89
36818;DHT22;22761;51.542;16.450;2022-11-20T04:14:46;2.67;54.90
36818;DHT22;22761;51.542;16.450;2022-11-20T04:17:13;2.68;54.69
36818;DHT22;22761;51.542;16.450;2022-11-20T04:19:40;2.67;54.93
36818;DHT22;22761;51.542;16.450;2022-11-20T04:22:07;2.65;54.89
36818;DHT22;22761;51.542;16.450;2022-11-20T04:24:34;2.72;55.21
36818;DHT22;22761;51.542;16.450;2022-11-20T04:27:01;2.74;55.07
36818;DHT22;22761;51.542;16.450;2022-11-20T04:29:28;2.78;54.99
36818;DHT22;22761;51.542;16.450;2022-11-20T04:31:55;2.75;54.75
36818;DHT22;22761;51.542;16.450;2022-11-20T04:34:22;2.76;54.58
36818;DHT22;22761;51.542;16.450;2022-11-20T04:36:49;2.72;55.19
36818;DHT22;22761;51.542;16.450;2022-11-20T04:39:16;2.67;55.47
36818;DHT22;22761;51.542;16.450;2022-11-20T04:41:43;2.69;55.00
36818;DHT22;22761;51.542;16.450;2022-11-20T04:44:10;2.69;55.17
36818;DHT22;22761;51.542;16.450;2022-11-20T04:46:40;2.71;55.59
36818;DHT22;22761;51.542;16.450;2022-11-20T04:49:08;2.74;55.82
36818;DHT22;22761;51.542;16.450;2022-11-20T04:51:35;2.82;55.15
36818;DHT22;22761;51.542;16.450;2022-11-20T04:54:03;2.83;54.55
36818;DHT22;22761;51.542;16.450;2022-11-20T04:56:30;2.86;55.44
36818;DHT22;22761;51.542;16.450;2022-11-20T04:59:01;2.93;54.67
36818;DHT22;22761;51.542;16.450;2022-11-20T05:01:29;2.93;54.06
36818;DHT22;22761;51.542;16.450;2022-11-20T05:03:56;2.93;54.90
36818;DHT22;22761;51.542;16.450;2022-11-20T05:06:23;2.96;55.98
36818;DHT22;22761;51.542;16.450;2022-11-20T05:08:50;3.03;56.09
36818;DHT22;22761;51.542;16.450;2022-11-20T05:11:20;3.06;55.73
36818;DHT22;22761;51.542;16.450;2022-11-20T05:13:49;3.13;55.47
36818;DHT22;22761;51.542;16.450;2022-11-20T05:16:19;3.11;55.70
36818;DHT22;22761;51.542;16.450;2022-11-20T05:18:48;3.16;55.61
36818;DHT22;22761;51.542;16.450;2022-11-20T05:21:16;3.17;55.78
36818;DHT22;22761;51.542;16.450;2022-11-20T05:23:43;3.20;56.31
36818;DHT22;22761;51.542;16.450;2022-11-20T05:26:21;3.26;56.59
36818;DHT22;22761;51.542;16.450;2022-11-20T05:28:50;3.34;56.32
36818;DHT22;22761;51.542;16.450;2022-11-20T05:31:21;3.36;55.99
36818;DHT22;22761;51.542;16.450;2022-11-20T05:33:48;3.40;55.70
36818;DHT22;22761;51.542;16.450;2022-11-20T05:36:17;3.43;55.42
36818;DHT22;22761;51.542;16.450;2022-11-20T05:38:44;3.44;55.70
36818;DHT22;22761;51.542;16.450;2022-11-20T05:41:18;3.44;55.62
36818;DHT22;22761;51.542;16.450;2022-11-20T05:43:47;3.37;55.04
36818;DHT22;22761;51.542;16.450;2022-11-20T05:46:18;3.32;54.87
36818;DHT22;22761;51.542;16.450;2022-11-20T05:48:45;3.21;55.02
36818;DHT22;22761;51.542;16.450;2022-11-20T05:51:17;3.23;55.64
36818;DHT22;22761;51.542;16.450;2022-11-20T05:53:44;3.31;55.14
36818;DHT22;22761;51.542;16.450;2022-11-20T05:56:16;3.30;55.04
36818;DHT22;22761;51.542;16.450;2022-11-20T05:58:44;3.28;54.44
36818;DHT22;22761;51.542;16.450;2022-11-20T06:01:21;3.30;55.23
36818;DHT22;22761;51.542;16.450;2022-11-20T06:03:50;3.32;53.96
36818;DHT22;22761;51.542;16.450;2022-11-20T06:06:18;3.30;54.34
36818;DHT22;22761;51.542;16.450;2022-11-20T06:08:46;3.30;54.63
36818;DHT22;22761;51.542;16.450;2022-11-20T06:11:15;3.32;54.58
36818;DHT22;22761;51.542;16.450;2022-11-20T06:13:43;3.31;54.63
36818;DHT22;22761;51.542;16.450;2022-11-20T06:16:12;3.37;54.72
36818;DHT22;22761;51.542;16.450;2022-11-20T06:18:40;3.44;54.87
36818;DHT22;22761;51.542;16.450;2022-11-20T06:21:13;3.47;55.06
36818;DHT22;22761;51.542;16.450;2022-11-20T06:23:41;3.46;55.31
36818;DHT22;22761;51.542;16.450;2022-11-20T06:26:15;3.48;55.86
36818;DHT22;22761;51.542;16.450;2022-11-20T06:28:42;3.51;56.03
36818;DHT22;22761;51.542;16.450;2022-11-20T06:31:13;3.58;55.97
36818;DHT22;22761;51.542;16.450;2022-11-20T06:33:41;3.58;55.65
36818;DHT22;22761;51.542;16.450;2022-11-20T06:36:09;3.61;55.56
36818;DHT22;22761;51.542;16.450;2022-11-20T06:38:38;3.58;55.80
36818;DHT22;22761;51.542;16.450;2022-11-20T06:41:06;3.59;55.46
36818;DHT22;22761;51.542;16.450;2022-11-20T06:43:34;3.61;54.79
36818;DHT22;22761;51.542;16.450;2022-11-20T06:46:01;3.57;54.36
36818;DHT22;22761;51.542;16.450;2022-11-20T06:48:28;3.57;54.47
36818;DHT22;22761;51.542;16.450;2022-11-20T06:50:56;3.62;54.54
36818;DHT22;22761;51.542;16.450;2022-11-20T06:53:24;3.61;54.60
36818;DHT22;22761;51.542;16.450;2022-11-20T06:55:52;3.64;54.75
36818;DHT22;22761;51.542;16.450;2022-11-20T06:58:19;3.64;54.54
36818;DHT22;22761;51.542;16.450;2022-11-20T07:00:46;3.62;54.75
36818;DHT22;22761;51.542;16.450;2022-11-20T07:03:14;3.62;54.60
36818;DHT22;22761;51.542;16.450;2022-11-20T07:05:41;3.58;54.95
36818;DHT22;22761;51.542;16.450;2022-11-20T07:08:08;3.59;55.04
36818;DHT22;22761;51.542;16.450;2022-11-20T07:10:35;3.55;54.63
36818;DHT22;22761;51.542;16.450;2022-11-20T07:13:02;3.54;54.95
36818;DHT22;22761;51.542;16.450;2022-11-20T07:15:29;3.54;54.60
36818;DHT22;22761;51.542;16.450;2022-11-20T07:17:59;3.55;54.79
36818;DHT22;22761;51.542;16.450;2022-11-20T07:20:26;3.57;55.05
36818;DHT22;22761;51.542;16.450;2022-11-20T07:22:55;3.54;54.92
36818;DHT22;22761;51.542;16.450;2022-11-20T07:25:26;3.53;54.78
36818;DHT22;22761;51.542;16.450;2022-11-20T07:27:58;3.51;54.61
36818;DHT22;22761;51.542;16.450;2022-11-20T07:30:26;3.48;54.62
36818;DHT22;22761;51.542;16.450;2022-11-20T07:32:54;3.51;55.13
36818;DHT22;22761;51.542;16.450;2022-11-20T07:35:23;3.54;55.02
36818;DHT22;22761;51.542;16.450;2022-11-20T07:37:50;3.50;54.37
36818;DHT22;22761;51.542;16.450;2022-11-20T07:40:18;3.43;55.03
36818;DHT22;22761;51.542;16.450;2022-11-20T07:42:50;3.43;54.93
36818;DHT22;22761;51.542;16.450;2022-11-20T07:45:18;3.44;55.26
36818;DHT22;22761;51.542;16.450;2022-11-20T07:47:46;3.50;55.15
36818;DHT22;22761;51.542;16.450;2022-11-20T07:50:14;3.53;54.86
36818;DHT22;22761;51.542;16.450;2022-11-20T07:52:41;3.53;54.78
36818;DHT22;22761;51.542;16.450;2022-11-20T07:55:09;3.55;54.65
36818;DHT22;22761;51.542;16.450;2022-11-20T07:57:36;3.54;54.45
36818;DHT22;22761;51.542;16.450;2022-11-20T08:00:05;3.59;54.60
36818;DHT22;22761;51.542;16.450;2022-11-20T08:02:39;3.62;54.74
36818;DHT22;22761;51.542;16.450;2022-11-20T08:05:09;3.64;55.04
36818;DHT22;22761;51.542;16.450;2022-11-20T08:07:41;3.65;54.42
36818;DHT22;22761;51.542;16.450;2022-11-20T08:10:12;3.65;54.32
36818;DHT22;22761;51.542;16.450;2022-11-20T08:12:50;3.68;54.18
36818;DHT22;22761;51.542;16.450;2022-11-20T08:15:38;3.76;53.95
36818;DHT22;22761;51.542;16.450;2022-11-20T08:18:08;3.79;54.06
36818;DHT22;22761;51.542;16.450;2022-11-20T08:20:37;3.85;53.44
36818;DHT22;22761;51.542;16.450;2022-11-20T08:23:06;3.90;53.45
36818;DHT22;22761;51.542;16.450;2022-11-20T08:25:36;3.94;53.20
36818;DHT22;22761;51.542;16.450;2022-11-20T08:28:07;4.10;53.17
36818;DHT22;22761;51.542;16.450;2022-11-20T08:30:36;4.16;54.00
36818;DHT22;22761;51.542;16.450;2022-11-20T08:33:06;4.35;53.46
36818;DHT22;22761;51.542;16.450;2022-11-20T08:35:36;4.52;52.74
36818;DHT22;22761;51.542;16.450;2022-11-20T08:38:05;4.69;51.28
36818;DHT22;22761;51.542;16.450;2022-11-20T08:40:33;4.80;51.12
36818;DHT22;22761;51.542;16.450;2022-11-20T08:43:00;4.93;51.27
36818;DHT22;22761;51.542;16.450;2022-11-20T08:45:27;5.01;51.31
36818;DHT22;22761;51.542;16.450;2022-11-20T08:48:02;5.20;51.56
36818;DHT22;22761;51.542;16.450;2022-11-20T08:50:29;5.17;50.58
36818;DHT22;22761;51.542;16.450;2022-11-20T08:53:04;5.29;49.99
36818;DHT22;22761;51.542;16.450;2022-11-20T08:55:32;5.12;49.79
36818;DHT22;22761;51.542;16.450;2022-11-20T08:58:04;5.15;49.92
36818;DHT22;22761;51.542;16.450;2022-11-20T09:00:33;5.25;49.00
36818;DHT22;22761;51.542;16.450;2022-11-20T09:03:01;5.12;49.59
36818;DHT22;22761;51.542;16.450;2022-11-20T09:05:28;5.32;49.37
36818;DHT22;22761;51.542;16.450;2022-11-20T09:07:59;5.08;48.72
36818;DHT22;22761;51.542;16.450;2022-11-20T09:10:26;5.21;49.96
36818;DHT22;22761;51.542;16.450;2022-11-20T09:12:54;5.31;48.76
36818;DHT22;22761;51.542;16.450;2022-11-20T09:15:28;5.10;49.22
36818;DHT22;22761;51.542;16.450;2022-11-20T09:18:02;5.34;48.88
36818;DHT22;22761;51.542;16.450;2022-11-20T09:20:31;5.11;48.38
36818;DHT22;22761;51.542;16.450;2022-11-20T09:22:58;5.29;49.64
36818;DHT22;22761;51.542;16.450;2022-11-20T09:25:26;5.32;48.30
36818;DHT22;22761;51.542;16.450;2022-11-20T09:28:00;5.15;49.98
36818;DHT22;22761;51.542;16.450;2022-11-20T09:30:27;5.39;49.39
36818;DHT22;22761;51.542;16.450;2022-11-20T09:32:54;5.21;48.73
36818;DHT22;22761;51.542;16.450;2022-11-20T09:35:21;5.39;48.91
36818;DHT22;22761;51.542;16.450;2022-11-20T09:37:49;5.29;49.50
36818;DHT22;22761;51.542;16.450;2022-11-20T09:40:27;5.24;49.87
36818;DHT22;22761;51.542;16.450;2022-11-20T09:43:27;5.46;48.92
36818;DHT22;22761;51.542;16.450;2022-11-20T09:46:17;5.27;49.21
36818;DHT22;22761;51.542;16.450;2022-11-20T09:54:18;5.34;48.43
36818;DHT22;22761;51.542;16.450;2022-11-20T09:56:55;5.25;48.53
36818;DHT22;22761;51.542;16.450;2022-11-20T09:59:44;5.35;49.37
36818;DHT22;22761;51.542;16.450;2022-11-20T10:02:29;5.35;48.59
36818;DHT22;22761;51.542;16.450;2022-11-20T10:08:03;5.46;48.81
36818;DHT22;22761;51.542;16.450;2022-11-20T10:10:56;5.55;49.20
36818;DHT22;22761;51.542;16.450;2022-11-20T10:17:02;5.66;47.61
36818;DHT22;22761;51.542;16.450;2022-11-20T10:20:08;5.74;46.37
36818;DHT22;22761;51.542;16.450;2022-11-20T10:25:34;5.82;46.52
36818;DHT22;22761;51.542;16.450;2022-11-20T10:31:00;6.12;46.52
36818;DHT22;22761;51.542;16.450;2022-11-20T10:33:29;6.28;47.21
36818;DHT22;22761;51.542;16.450;2022-11-20T10:38:44;6.59;45.37
36818;DHT22;22761;51.542;16.450;2022-11-20T10:41:17;6.70;45.33
36818;DHT22;22761;51.542;16.450;2022-11-20T10:44:19;6.83;44.70
36818;DHT22;22761;51.542;16.450;2022-11-20T10:46:45;6.95;45.19
36818;DHT22;22761;51.542;16.450;2022-11-20T10:49:18;7.05;43.87
36818;DHT22;22761;51.542;16.450;2022-11-20T10:52:02;7.14;42.19
36818;DHT22;22761;51.542;16.450;2022-11-20T10:55:01;7.19;41.84
36818;DHT22;22761;51.542;16.450;2022-11-20T11:00:04;7.26;41.53
36818;DHT22;22761;51.542;16.450;2022-11-20T11:02:53;7.35;42.97
36818;DHT22;22761;51.542;16.450;2022-11-20T11:05:43;7.40;41.47
36818;DHT22;22761;51.542;16.450;2022-11-20T11:08:16;7.57;42.12
36818;DHT22;22761;51.542;16.450;2022-11-20T11:13:29;8.05;42.05
36818;DHT22;22761;51.542;16.450;2022-11-20T11:15:58;8.32;41.27
36818;DHT22;22761;51.542;16.450;2022-11-20T11:18:34;8.60;41.28
36818;DHT22;22761;51.542;16.450;2022-11-20T11:21:04;8.91;40.58
36818;DHT22;22761;51.542;16.450;2022-11-20T11:23:37;9.16;41.99
36818;DHT22;22761;51.542;16.450;2022-11-20T11:26:21;9.45;40.60
36818;DHT22;22761;51.542;16.450;2022-11-20T11:29:02;9.68;38.55
36818;DHT22;22761;51.542;16.450;2022-11-20T11:31:35;9.92;37.85
36818;DHT22;22761;51.542;16.450;2022-11-20T11:34:14;10.13;37.91
36818;DHT22;22761;51.542;16.450;2022-11-20T11:36:56;10.27;36.39
36818;DHT22;22761;51.542;16.450;2022-11-20T11:39:27;10.24;38.45
36818;DHT22;22761;51.542;16.450;2022-11-20T11:41:57;10.10;37.07
36818;DHT22;22761;51.542;16.450;2022-11-20T11:44:33;10.06;37.65
36818;DHT22;22761;51.542;16.450;2022-11-20T11:47:30;9.98;38.25
36818;DHT22;22761;51.542;16.450;2022-11-20T11:53:07;9.92;38.02
36818;DHT22;22761;51.542;16.450;2022-11-20T11:55:29;9.81;38.72
36818;DHT22;22761;51.542;16.450;2022-11-20T11:58:18;9.68;38.87
36818;DHT22;22761;51.542;16.450;2022-11-20T12:01:02;9.45;38.47
36818;DHT22;22761;51.542;16.450;2022-11-20T12:03:38;9.09;38.49
36818;DHT22;22761;51.542;16.450;2022-11-20T12:06:14;8.76;38.54
36818;DHT22;22761;51.542;16.450;2022-11-20T12:09:04;8.53;38.44
36818;DHT22;22761;51.542;16.450;2022-11-20T12:11:54;8.58;39.17
36818;DHT22;22761;51.542;16.450;2022-11-20T12:14:40;8.89;37.75
36818;DHT22;22761;51.542;16.450;2022-11-20T12:17:12;9.22;36.79
36818;DHT22;22761;51.542;16.450;2022-11-20T12:19:39;9.44;37.20
36818;DHT22;22761;51.542;16.450;2022-11-20T12:25:33;9.59;36.78
36818;DHT22;22761;51.542;16.450;2022-11-20T12:28:13;9.66;34.77
36818;DHT22;22761;51.542;16.450;2022-11-20T12:31:47;9.47;35.82
36818;DHT22;22761;51.542;16.450;2022-11-20T12:33:50;9.48;36.59
36818;DHT22;22761;51.542;16.450;2022-11-20T12:48:24;7.18;39.06
36818;DHT22;22761;51.542;16.450;2022-11-20T12:51:24;6.91;38.79
36818;DHT22;22761;51.542;16.450;2022-11-20T12:54:20;6.95;40.54
36818;DHT22;22761;51.542;16.450;2022-11-20T13:00:08;7.37;39.69
36818;DHT22;22761;51.542;16.450;2022-11-20T13:08:32;7.30;38.75
36818;DHT22;22761;51.542;16.450;2022-11-20T13:13:53;6.92;40.53
36818;DHT22;22761;51.542;16.450;2022-11-20T13:19:16;6.76;40.51
36818;DHT22;22761;51.542;16.450;2022-11-20T13:21:47;6.86;40.57
36818;DHT22;22761;51.542;16.450;2022-11-20T13:24:30;7.00;40.16
36818;DHT22;22761;51.542;16.450;2022-11-20T13:27:04;7.20;40.24
36818;DHT22;22761;51.542;16.450;2022-11-20T13:29:36;7.42;39.85
36818;DHT22;22761;51.542;16.450;2022-11-20T13:32:19;7.63;39.31
36818;DHT22;22761;51.542;16.450;2022-11-20T13:35:02;7.84;38.86
36818;DHT22;22761;51.542;16.450;2022-11-20T13:37:36;7.95;38.71
36818;DHT22;22761;51.542;16.450;2022-11-20T13:40:19;7.99;38.96
36818;DHT22;22761;51.542;16.450;2022-11-20T13:42:46;7.99;38.62
36818;DHT22;22761;51.542;16.450;2022-11-20T13:45:30;8.05;38.84
36818;DHT22;22761;51.542;16.450;2022-11-20T13:48:04;8.04;38.62
36818;DHT22;22761;51.542;16.450;2022-11-20T13:50:40;8.01;38.39
36818;DHT22;22761;51.542;16.450;2022-11-20T13:53:33;7.99;38.68
36818;DHT22;22761;51.542;16.450;2022-11-20T13:56:28;7.98;38.99
36818;DHT22;22761;51.542;16.450;2022-11-20T14:01:43;7.80;39.86
36818;DHT22;22761;51.542;16.450;2022-11-20T14:04:15;7.74;39.69
36818;DHT22;22761;51.542;16.450;2022-11-20T14:06:46;7.56;40.09
36818;DHT22;22761;51.542;16.450;2022-11-20T14:09:27;7.40;40.82
36818;DHT22;22761;51.542;16.450;2022-11-20T14:11:54;7.26;41.14
36818;DHT22;22761;51.542;16.450;2022-11-20T14:14:32;7.16;41.69
36818;DHT22;22761;51.542;16.450;2022-11-20T14:17:19;7.11;42.49
36818;DHT22;22761;51.542;16.450;2022-11-20T14:19:39;7.08;42.84
36818;DHT22;22761;51.542;16.450;2022-11-20T14:22:21;7.04;42.85
36818;DHT22;22761;51.542;16.450;2022-11-20T14:25:17;6.95;42.80
36818;DHT22;22761;51.542;16.450;2022-11-20T14:27:41;6.87;42.71
36818;DHT22;22761;51.542;16.450;2022-11-20T14:30:16;6.67;43.64
36818;DHT22;22761;51.542;16.450;2022-11-20T14:32:46;6.52;43.81
36818;DHT22;22761;51.542;16.450;2022-11-20T14:35:29;6.26;44.14
36818;DHT22;22761;51.542;16.450;2022-11-20T14:37:57;5.97;44.58
36818;DHT22;22761;51.542;16.450;2022-11-20T14:40:34;5.72;46.19
36818;DHT22;22761;51.542;16.450;2022-11-20T14:43:27;5.45;47.30
36818;DHT22;22761;51.542;16.450;2022-11-20T14:46:09;5.14;49.11
36818;DHT22;22761;51.542;16.450;2022-11-20T14:48:46;5.37;50.26
36818;DHT22;22761;51.542;16.450;2022-11-20T14:54:20;5.32;51.64
36818;DHT22;22761;51.542;16.450;2022-11-20T14:56:58;5.08;50.77
36818;DHT22;22761;51.542;16.450;2022-11-20T14:59:31;5.17;50.38
36818;DHT22;22761;51.542;16.450;2022-11-20T15:02:05;5.25;49.43
36818;DHT22;22761;51.542;16.450;2022-11-20T15:04:33;5.10;48.52
36818;DHT22;22761;51.542;16.450;2022-11-20T15:07:00;5.15;49.34
36818;DHT22;22761;51.542;16.450;2022-11-20T15:09:27;5.28;50.07
36818;DHT22;22761;51.542;16.450;2022-11-20T15:11:58;5.06;49.19
36818;DHT22;22761;51.542;16.450;2022-11-20T15:14:27;5.06;50.36
36818;DHT22;22761;51.542;16.450;2022-11-20T15:16:55;5.08;49.90
36818;DHT22;22761;51.542;16.450;2022-11-20T15:19:25;5.04;49.56
36818;DHT22;22761;51.542;16.450;2022-11-20T15:21:53;4.94;49.94
36818;DHT22;22761;51.542;16.450;2022-11-20T15:24:21;4.96;50.04
36818;DHT22;22761;51.542;16.450;2022-11-20T15:26:51;4.97;50.93
36818;DHT22;22761;51.542;16.450;2022-11-20T15:29:18;4.93;50.49
36818;DHT22;22761;51.542;16.450;2022-11-20T15:31:47;4.83;49.79
36818;DHT22;22761;51.542;16.450;2022-11-20T15:34:16;4.71;50.37
36818;DHT22;22761;51.542;16.450;2022-11-20T15:36:44;4.64;51.91
36818;DHT22;22761;51.542;16.450;2022-11-20T15:39:11;4.64;51.97
36818;DHT22;22761;51.542;16.450;2022-11-20T15:41:39;4.61;51.46
36818;DHT22;22761;51.542;16.450;2022-11-20T15:44:07;4.59;50.87
36818;DHT22;22761;51.542;16.450;2022-11-20T15:46:41;4.56;51.61
36818;DHT22;22761;51.542;16.450;2022-11-20T15:49:14;4.54;51.84
36818;DHT22;22761;51.542;16.450;2022-11-20T15:51:48;4.49;52.16
36818;DHT22;22761;51.542;16.450;2022-11-20T15:54:21;4.39;51.57
36818;DHT22;22761;51.542;16.450;2022-11-20T15:56:50;4.27;52.00
36818;DHT22;22761;51.542;16.450;2022-11-20T15:59:20;4.20;52.12
36818;DHT22;22761;51.542;16.450;2022-11-20T16:01:47;4.11;52.66
36818;DHT22;22761;51.542;16.450;2022-11-20T16:04:16;4.10;51.82
36818;DHT22;22761;51.542;16.450;2022-11-20T16:06:45;4.00;51.98
36818;DHT22;22761;51.542;16.450;2022-11-20T16:09:12;3.99;51.66
36818;DHT22;22761;51.542;16.450;2022-11-20T16:11:40;3.96;51.40
36818;DHT22;22761;51.542;16.450;2022-11-20T16:14:10;3.92;51.72
36818;DHT22;22761;51.542;16.450;2022-11-20T16:16:56;3.90;51.79
36818;DHT22;22761;51.542;16.450;2022-11-20T16:19:23;3.89;52.21
36818;DHT22;22761;51.542;16.450;2022-11-20T16:21:50;3.85;51.96
36818;DHT22;22761;51.542;16.450;2022-11-20T16:24:18;3.83;52.09
36818;DHT22;22761;51.542;16.450;2022-11-20T16:26:46;3.86;52.23
36818;DHT22;22761;51.542;16.450;2022-11-20T16:29:14;3.81;52.15
36818;DHT22;22761;51.542;16.450;2022-11-20T16:31:42;3.81;52.27
36818;DHT22;22761;51.542;16.450;2022-11-20T16:34:09;3.81;52.43
36818;DHT22;22761;51.542;16.450;2022-11-20T16:36:40;3.81;52.19
36818;DHT22;22761;51.542;16.450;2022-11-20T16:39:08;3.83;52.44
36818;DHT22;22761;51.542;16.450;2022-11-20T16:41:36;3.82;52.30
36818;DHT22;22761;51.542;16.450;2022-11-20T16:44:08;3.78;52.27
36818;DHT22;22761;51.542;16.450;2022-11-20T16:46:36;3.75;52.24
36818;DHT22;22761;51.542;16.450;2022-11-20T16:49:12;3.74;53.24
36818;DHT22;22761;51.542;16.450;2022-11-20T16:51:39;3.82;53.34
36818;DHT22;22761;51.542;16.450;2022-11-20T16:54:08;3.85;53.13
36818;DHT22;22761;51.542;16.450;2022-11-20T16:56:36;3.90;53.67
36818;DHT22;22761;51.542;16.450;2022-11-20T16:59:05;3.92;53.24
36818;DHT22;22761;51.542;16.450;2022-11-20T17:01:33;3.88;53.42
36818;DHT22;22761;51.542;16.450;2022-11-20T17:04:05;3.86;53.97
36818;DHT22;22761;51.542;16.450;2022-11-20T17:06:37;3.83;53.82